sensor_id;sensor_type;location;lat;lon;timestamp;temperature;humidity
1680;DHT22;838;51.794;12.258;2023-08-06T00:02:17;19.60;23.90
1680;DHT22;838;51.794;12.258;2023-08-06T00:04:43;19.80;22.40
1680;DHT22;838;51.794;12.258;2023-08-06T00:07:09;19.90;21.70
1680;DHT22;838;51.794;12.258;2023-08-06T00:09:35;20.00;20.90
1680;DHT22;838;51.794;12.258;2023-08-06T00:12:04;20.20;20.20
1680;DHT22;838;51.794;12.258;2023-08-06T00:14:30;20.20;19.70
1680;DHT22;838;51.794;12.258;2023-08-06T00:16:56;20.20;19.50
1680;DHT22;838;51.794;12.258;2023-08-06T00:19:22;20.10;19.40
1680;DHT22;838;51.794;12.258;2023-08-06T00:21:48;20.00;20.20
1680;DHT22;838;51.794;12.258;2023-08-06T00:24:14;20.00;20.20
1680;DHT22;838;51.794;12.258;2023-08-06T00:26:46;19.90;20.40
1680;DHT22;838;51.794;12.258;2023-08-06T00:31:38;19.90;20.50
1680;DHT22;838;51.794;12.258;2023-08-06T00:34:04;19.80;21.80
1680;DHT22;838;51.794;12.258;2023-08-06T00:36:29;19.90;21.50
1680;DHT22;838;51.794;12.258;2023-08-06T00:38:55;19.90;21.20
1680;DHT22;838;51.794;12.258;2023-08-06T00:41:21;19.80;21.20
1680;DHT22;838;51.794;12.258;2023-08-06T00:46:13;20.00;20.00
1680;DHT22;838;51.794;12.258;2023-08-06T00:48:40;19.90;21.30
1680;DHT22;838;51.794;12.258;2023-08-06T00:51:06;19.90;21.00
1680;DHT22;838;51.794;12.258;2023-08-06T00:53:32;19.90;21.70
1680;DHT22;838;51.794;12.258;2023-08-06T00:55:59;19.80;21.60
1680;DHT22;838;51.794;12.258;2023-08-06T00:58:25;19.80;21.50
1680;DHT22;838;51.794;12.258;2023-08-06T01:00:51;19.60;23.20
1680;DHT22;838;51.794;12.258;2023-08-06T01:03:17;19.40;23.70
1680;DHT22;838;51.794;12.258;2023-08-06T01:05:43;18.90;29.30
1680;DHT22;838;51.794;12.258;2023-08-06T01:10:55;19.00;28.90
1680;DHT22;838;51.794;12.258;2023-08-06T01:13:46;19.10;28.50
1680;DHT22;838;51.794;12.258;2023-08-06T01:16:17;19.00;29.20
1680;DHT22;838;51.794;12.258;2023-08-06T01:18:44;18.80;32.00
1680;DHT22;838;51.794;12.258;2023-08-06T01:21:17;18.50;38.50
1680;DHT22;838;51.794;12.258;2023-08-06T01:23:52;18.30;40.80
1680;DHT22;838;51.794;12.258;2023-08-06T01:26:25;18.30;43.20
1680;DHT22;838;51.794;12.258;2023-08-06T01:31:31;18.90;38.00
1680;DHT22;838;51.794;12.258;2023-08-06T01:33:59;19.10;35.60
1680;DHT22;838;51.794;12.258;2023-08-06T01:36:27;19.10;35.00
1680;DHT22;838;51.794;12.258;2023-08-06T01:38:53;19.10;34.90
1680;DHT22;838;51.794;12.258;2023-08-06T01:41:20;19.10;35.10
1680;DHT22;838;51.794;12.258;2023-08-06T01:43:45;18.80;38.80
1680;DHT22;838;51.794;12.258;2023-08-06T01:46:11;18.90;38.20
1680;DHT22;838;51.794;12.258;2023-08-06T01:48:37;19.00;37.80
1680;DHT22;838;51.794;12.258;2023-08-06T01:51:06;19.00;37.20
1680;DHT22;838;51.794;12.258;2023-08-06T01:53:33;19.00;37.10
1680;DHT22;838;51.794;12.258;2023-08-06T01:55:59;19.00;37.70
1680;DHT22;838;51.794;12.258;2023-08-06T01:58:25;19.00;35.00
1680;DHT22;838;51.794;12.258;2023-08-06T02:00:51;19.30;34.50
1680;DHT22;838;51.794;12.258;2023-08-06T02:03:16;19.20;34.50
1680;DHT22;838;51.794;12.258;2023-08-06T02:05:45;19.20;34.60
1680;DHT22;838;51.794;12.258;2023-08-06T02:08:14;19.40;33.30
1680;DHT22;838;51.794;12.258;2023-08-06T02:10:40;19.60;31.70
1680;DHT22;838;51.794;12.258;2023-08-06T02:13:07;19.40;32.70
1680;DHT22;838;51.794;12.258;2023-08-06T02:15:32;19.30;33.10
1680;DHT22;838;51.794;12.258;2023-08-06T02:17:58;19.30;32.50
1680;DHT22;838;51.794;12.258;2023-08-06T02:20:24;19.40;32.10
1680;DHT22;838;51.794;12.258;2023-08-06T02:22:49;19.40;32.00
1680;DHT22;838;51.794;12.258;2023-08-06T02:25:15;19.00;35.90
1680;DHT22;838;51.794;12.258;2023-08-06T02:27:41;19.00;34.70
1680;DHT22;838;51.794;12.258;2023-08-06T02:30:07;19.20;33.10
1680;DHT22;838;51.794;12.258;2023-08-06T02:32:33;19.30;32.20
1680;DHT22;838;51.794;12.258;2023-08-06T02:35:01;19.30;33.00
1680;DHT22;838;51.794;12.258;2023-08-06T02:37:27;19.30;32.10
1680;DHT22;838;51.794;12.258;2023-08-06T02:39:53;19.30;31.90
1680;DHT22;838;51.794;12.258;2023-08-06T02:42:19;19.40;31.10
1680;DHT22;838;51.794;12.258;2023-08-06T02:44:44;19.30;31.60
1680;DHT22;838;51.794;12.258;2023-08-06T02:47:10;19.10;33.20
1680;DHT22;838;51.794;12.258;2023-08-06T02:49:38;18.90;35.60
1680;DHT22;838;51.794;12.258;2023-08-06T02:52:05;18.50;38.20
1680;DHT22;838;51.794;12.258;2023-08-06T02:54:34;18.70;38.00
1680;DHT22;838;51.794;12.258;2023-08-06T02:56:59;18.80;37.70
1680;DHT22;838;51.794;12.258;2023-08-06T02:59:31;18.90;35.60
1680;DHT22;838;51.794;12.258;2023-08-06T03:02:03;18.70;37.70
1680;DHT22;838;51.794;12.258;2023-08-06T03:04:44;18.50;40.60
1680;DHT22;838;51.794;12.258;2023-08-06T03:07:10;18.10;45.50
1680;DHT22;838;51.794;12.258;2023-08-06T03:09:36;17.90;50.00
1680;DHT22;838;51.794;12.258;2023-08-06T03:12:02;17.90;50.30
1680;DHT22;838;51.794;12.258;2023-08-06T03:14:34;18.10;47.90
1680;DHT22;838;51.794;12.258;2023-08-06T03:17:00;17.90;50.00
1680;DHT22;838;51.794;12.258;2023-08-06T03:19:26;17.80;52.40
1680;DHT22;838;51.794;12.258;2023-08-06T03:21:52;17.90;52.40
1680;DHT22;838;51.794;12.258;2023-08-06T03:24:18;18.10;48.00
1680;DHT22;838;51.794;12.258;2023-08-06T03:26:47;17.90;50.20
1680;DHT22;838;51.794;12.258;2023-08-06T03:29:13;17.90;50.60
1680;DHT22;838;51.794;12.258;2023-08-06T03:31:38;17.90;50.40
1680;DHT22;838;51.794;12.258;2023-08-06T03:34:04;18.00;49.70
1680;DHT22;838;51.794;12.258;2023-08-06T03:36:30;18.00;49.20
1680;DHT22;838;51.794;12.258;2023-08-06T03:38:56;18.20;47.20
1680;DHT22;838;51.794;12.258;2023-08-06T03:41:22;18.30;46.00
1680;DHT22;838;51.794;12.258;2023-08-06T03:43:48;18.40;44.10
1680;DHT22;838;51.794;12.258;2023-08-06T03:46:14;18.20;46.20
1680;DHT22;838;51.794;12.258;2023-08-06T03:48:40;18.00;48.50
1680;DHT22;838;51.794;12.258;2023-08-06T03:51:08;18.20;46.10
1680;DHT22;838;51.794;12.258;2023-08-06T03:53:34;18.30;46.30
1680;DHT22;838;51.794;12.258;2023-08-06T03:55:59;18.60;43.10
1680;DHT22;838;51.794;12.258;2023-08-06T03:58:26;18.70;42.00
1680;DHT22;838;51.794;12.258;2023-08-06T04:01:02;18.90;40.00
1680;DHT22;838;51.794;12.258;2023-08-06T04:03:28;19.00;38.60
1680;DHT22;838;51.794;12.258;2023-08-06T04:05:54;19.20;37.70
1680;DHT22;838;51.794;12.258;2023-08-06T04:08:23;19.20;36.40
1680;DHT22;838;51.794;12.258;2023-08-06T04:10:51;19.30;35.20
1680;DHT22;838;51.794;12.258;2023-08-06T04:13:17;19.40;34.30
1680;DHT22;838;51.794;12.258;2023-08-06T04:15:43;19.60;33.10
1680;DHT22;838;51.794;12.258;2023-08-06T04:18:09;19.60;32.10
1680;DHT22;838;51.794;12.258;2023-08-06T04:20:41;19.60;33.10
1680;DHT22;838;51.794;12.258;2023-08-06T04:23:07;19.60;32.90
1680;DHT22;838;51.794;12.258;2023-08-06T04:25:33;19.70;33.60
1680;DHT22;838;51.794;12.258;2023-08-06T04:27:59;19.40;34.80
1680;DHT22;838;51.794;12.258;2023-08-06T04:30:25;19.40;34.40
1680;DHT22;838;51.794;12.258;2023-08-06T04:32:51;19.50;34.20
1680;DHT22;838;51.794;12.258;2023-08-06T04:35:17;19.40;35.60
1680;DHT22;838;51.794;12.258;2023-08-06T04:37:43;19.20;35.90
1680;DHT22;838;51.794;12.258;2023-08-06T04:40:09;19.10;37.10
1680;DHT22;838;51.794;12.258;2023-08-06T04:42:35;19.00;38.50
1680;DHT22;838;51.794;12.258;2023-08-06T04:45:04;18.90;39.20
1680;DHT22;838;51.794;12.258;2023-08-06T04:47:30;18.90;39.40
1680;DHT22;838;51.794;12.258;2023-08-06T04:49:56;19.10;38.90
1680;DHT22;838;51.794;12.258;2023-08-06T04:52:21;19.10;39.20
1680;DHT22;838;51.794;12.258;2023-08-06T04:54:50;19.10;40.50
1680;DHT22;838;51.794;12.258;2023-08-06T04:57:19;19.00;39.90
1680;DHT22;838;51.794;12.258;2023-08-06T04:59:45;19.10;39.60
1680;DHT22;838;51.794;12.258;2023-08-06T05:02:11;19.30;38.90
1680;DHT22;838;51.794;12.258;2023-08-06T05:04:37;19.30;39.20
1680;DHT22;838;51.794;12.258;2023-08-06T05:07:04;19.30;39.00
1680;DHT22;838;51.794;12.258;2023-08-06T05:09:30;19.40;39.40
1680;DHT22;838;51.794;12.258;2023-08-06T05:11:56;19.50;38.80
1680;DHT22;838;51.794;12.258;2023-08-06T05:14:22;19.40;39.80
1680;DHT22;838;51.794;12.258;2023-08-06T05:16:48;19.50;39.00
1680;DHT22;838;51.794;12.258;2023-08-06T05:19:14;19.60;38.10
1680;DHT22;838;51.794;12.258;2023-08-06T05:21:39;19.70;37.60
1680;DHT22;838;51.794;12.258;2023-08-06T05:24:05;19.80;36.60
1680;DHT22;838;51.794;12.258;2023-08-06T05:26:31;19.90;36.00
1680;DHT22;838;51.794;12.258;2023-08-06T05:28:57;20.00;35.10
1680;DHT22;838;51.794;12.258;2023-08-06T05:31:22;20.00;35.90
1680;DHT22;838;51.794;12.258;2023-08-06T05:33:56;20.10;35.40
1680;DHT22;838;51.794;12.258;2023-08-06T05:36:27;20.20;34.70
1680;DHT22;838;51.794;12.258;2023-08-06T05:38:53;20.40;33.80
1680;DHT22;838;51.794;12.258;2023-08-06T05:41:19;20.30;32.80
1680;DHT22;838;51.794;12.258;2023-08-06T05:43:45;20.50;31.40
1680;DHT22;838;51.794;12.258;2023-08-06T05:46:32;20.50;32.40
1680;DHT22;838;51.794;12.258;2023-08-06T05:49:03;20.50;31.00
1680;DHT22;838;51.794;12.258;2023-08-06T05:51:36;20.50;31.50
1680;DHT22;838;51.794;12.258;2023-08-06T05:54:08;20.80;31.00
1680;DHT22;838;51.794;12.258;2023-08-06T05:56:38;20.90;30.00
1680;DHT22;838;51.794;12.258;2023-08-06T05:59:10;21.00;29.30
1680;DHT22;838;51.794;12.258;2023-08-06T06:01:42;21.00;29.60
1680;DHT22;838;51.794;12.258;2023-08-06T06:04:21;21.10;28.40
1680;DHT22;838;51.794;12.258;2023-08-06T06:09:56;21.10;27.80
1680;DHT22;838;51.794;12.258;2023-08-06T06:12:22;21.00;28.90
1680;DHT22;838;51.794;12.258;2023-08-06T06:14:48;20.90;29.50
1680;DHT22;838;51.794;12.258;2023-08-06T06:17:14;21.00;28.90
1680;DHT22;838;51.794;12.258;2023-08-06T06:19:52;21.10;28.90
1680;DHT22;838;51.794;12.258;2023-08-06T06:22:18;21.10;28.70
1680;DHT22;838;51.794;12.258;2023-08-06T06:25:10;21.10;29.20
1680;DHT22;838;51.794;12.258;2023-08-06T06:27:38;20.90;29.90
1680;DHT22;838;51.794;12.258;2023-08-06T06:30:05;20.60;32.40
1680;DHT22;838;51.794;12.258;2023-08-06T06:32:32;20.30;34.50
1680;DHT22;838;51.794;12.258;2023-08-06T06:35:02;20.20;35.50
1680;DHT22;838;51.794;12.258;2023-08-06T06:37:30;20.20;36.70
1680;DHT22;838;51.794;12.258;2023-08-06T06:39:56;20.10;37.10
1680;DHT22;838;51.794;12.258;2023-08-06T06:42:22;20.20;38.80
1680;DHT22;838;51.794;12.258;2023-08-06T06:44:48;20.20;38.00
1680;DHT22;838;51.794;12.258;2023-08-06T06:47:26;20.40;36.50
1680;DHT22;838;51.794;12.258;2023-08-06T06:50:10;20.60;35.10
1680;DHT22;838;51.794;12.258;2023-08-06T06:52:51;21.00;32.70
1680;DHT22;838;51.794;12.258;2023-08-06T06:55:19;21.10;29.80
1680;DHT22;838;51.794;12.258;2023-08-06T06:57:50;21.10;28.80
1680;DHT22;838;51.794;12.258;2023-08-06T07:00:19;21.10;28.40
1680;DHT22;838;51.794;12.258;2023-08-06T07:02:48;21.00;28.20
1680;DHT22;838;51.794;12.258;2023-08-06T07:05:14;21.10;28.40
1680;DHT22;838;51.794;12.258;2023-08-06T07:07:43;21.20;25.80
1680;DHT22;838;51.794;12.258;2023-08-06T07:10:13;21.30;25.10
1680;DHT22;838;51.794;12.258;2023-08-06T07:12:41;21.10;23.70
1680;DHT22;838;51.794;12.258;2023-08-06T07:15:11;21.10;25.10
1680;DHT22;838;51.794;12.258;2023-08-06T07:17:43;21.20;22.40
1680;DHT22;838;51.794;12.258;2023-08-06T07:20:14;21.30;21.20
1680;DHT22;838;51.794;12.258;2023-08-06T07:22:46;20.90;22.80
1680;DHT22;838;51.794;12.258;2023-08-06T07:25:20;21.10;23.30
1680;DHT22;838;51.794;12.258;2023-08-06T07:27:55;21.20;23.00
1680;DHT22;838;51.794;12.258;2023-08-06T07:30:22;21.00;22.30
1680;DHT22;838;51.794;12.258;2023-08-06T07:32:54;21.00;22.40
1680;DHT22;838;51.794;12.258;2023-08-06T07:35:20;20.70;22.90
1680;DHT22;838;51.794;12.258;2023-08-06T07:37:45;20.70;23.10
1680;DHT22;838;51.794;12.258;2023-08-06T07:40:15;20.80;22.30
1680;DHT22;838;51.794;12.258;2023-08-06T07:43:26;20.90;23.80
1680;DHT22;838;51.794;12.258;2023-08-06T07:45:44;21.10;19.20
1680;DHT22;838;51.794;12.258;2023-08-06T07:48:10;20.40;21.20
1680;DHT22;838;51.794;12.258;2023-08-06T07:50:39;20.30;23.00
1680;DHT22;838;51.794;12.258;2023-08-06T07:53:05;20.20;24.90
1680;DHT22;838;51.794;12.258;2023-08-06T07:55:42;20.50;25.00
1680;DHT22;838;51.794;12.258;2023-08-06T07:58:11;20.80;21.20
1680;DHT22;838;51.794;12.258;2023-08-06T08:00:57;21.00;20.90
1680;DHT22;838;51.794;12.258;2023-08-06T08:03:31;21.00;19.80
1680;DHT22;838;51.794;12.258;2023-08-06T08:05:57;20.90;18.40
1680;DHT22;838;51.794;12.258;2023-08-06T08:08:27;20.70;18.80
1680;DHT22;838;51.794;12.258;2023-08-06T08:11:06;20.40;20.20
1680;DHT22;838;51.794;12.258;2023-08-06T08:13:32;20.80;20.30
1680;DHT22;838;51.794;12.258;2023-08-06T08:15:58;21.20;16.50
1680;DHT22;838;51.794;12.258;2023-08-06T08:18:27;21.20;15.00
1680;DHT22;838;51.794;12.258;2023-08-06T08:20:55;21.20;16.50
1680;DHT22;838;51.794;12.258;2023-08-06T08:23:21;21.50;13.50
1680;DHT22;838;51.794;12.258;2023-08-06T08:25:47;21.90;13.20
1680;DHT22;838;51.794;12.258;2023-08-06T08:28:13;22.20;10.20
1680;DHT22;838;51.794;12.258;2023-08-06T08:30:40;22.20;9.30
1680;DHT22;838;51.794;12.258;2023-08-06T08:33:07;22.00;10.80
1680;DHT22;838;51.794;12.258;2023-08-06T08:35:36;21.90;12.90
1680;DHT22;838;51.794;12.258;2023-08-06T08:38:01;22.30;10.20
1680;DHT22;838;51.794;12.258;2023-08-06T08:40:33;22.80;6.90
1680;DHT22;838;51.794;12.258;2023-08-06T08:43:00;23.20;3.90
1680;DHT22;838;51.794;12.258;2023-08-06T08:45:28;23.50;2.10
1680;DHT22;838;51.794;12.258;2023-08-06T08:47:54;23.70;1.00
1680;DHT22;838;51.794;12.258;2023-08-06T08:50:21;23.60;1.20
1680;DHT22;838;51.794;12.258;2023-08-06T08:52:47;23.70;1.00
1680;DHT22;838;51.794;12.258;2023-08-06T08:55:16;23.80;1.00
1680;DHT22;838;51.794;12.258;2023-08-06T08:57:46;23.90;1.00
1680;DHT22;838;51.794;12.258;2023-08-06T09:00:12;23.80;1.00
1680;DHT22;838;51.794;12.258;2023-08-06T09:02:40;24.00;1.00
1680;DHT22;838;51.794;12.258;2023-08-06T09:05:10;24.10;1.00
1680;DHT22;838;51.794;12.258;2023-08-06T09:07:42;24.10;1.00
1680;DHT22;838;51.794;12.258;2023-08-06T09:10:11;23.70;1.00
1680;DHT22;838;51.794;12.258;2023-08-06T09:12:43;23.70;1.00
1680;DHT22;838;51.794;12.258;2023-08-06T09:15:13;23.60;1.50
1680;DHT22;838;51.794;12.258;2023-08-06T09:17:39;23.40;1.00
1680;DHT22;838;51.794;12.258;2023-08-06T09:20:12;23.30;1.00
1680;DHT22;838;51.794;12.258;2023-08-06T09:22:48;23.20;1.00
1680;DHT22;838;51.794;12.258;2023-08-06T09:25:24;23.90;1.00
1680;DHT22;838;51.794;12.258;2023-08-06T09:27:56;24.50;1.00
1680;DHT22;838;51.794;12.258;2023-08-06T09:30:36;25.30;1.00
1680;DHT22;838;51.794;12.258;2023-08-06T09:33:03;25.90;1.00
1680;DHT22;838;51.794;12.258;2023-08-06T09:35:30;25.80;1.00
1680;DHT22;838;51.794;12.258;2023-08-06T09:38:05;25.80;1.00
1680;DHT22;838;51.794;12.258;2023-08-06T09:40:33;25.40;1.00
1680;DHT22;838;51.794;12.258;2023-08-06T09:43:02;25.70;1.00
1680;DHT22;838;51.794;12.258;2023-08-06T09:45:37;25.80;1.00
1680;DHT22;838;51.794;12.258;2023-08-06T09:48:05;26.00;1.00
1680;DHT22;838;51.794;12.258;2023-08-06T09:50:36;25.90;1.00
1680;DHT22;838;51.794;12.258;2023-08-06T09:53:06;26.00;1.00
1680;DHT22;838;51.794;12.258;2023-08-06T09:55:33;26.40;1.00
1680;DHT22;838;51.794;12.258;2023-08-06T09:58:05;26.50;1.00
1680;DHT22;838;51.794;12.258;2023-08-06T10:00:33;25.90;1.00
1680;DHT22;838;51.794;12.258;2023-08-06T10:03:10;25.90;1.00
1680;DHT22;838;51.794;12.258;2023-08-06T10:05:36;26.10;1.00
1680;DHT22;838;51.794;12.258;2023-08-06T10:08:04;26.30;1.00
1680;DHT22;838;51.794;12.258;2023-08-06T10:10:32;26.20;1.00
1680;DHT22;838;51.794;12.258;2023-08-06T10:12:58;25.70;1.00
1680;DHT22;838;51.794;12.258;2023-08-06T10:15:27;25.80;1.00
1680;DHT22;838;51.794;12.258;2023-08-06T10:17:56;25.80;1.00
1680;DHT22;838;51.794;12.258;2023-08-06T10:20:26;25.60;1.00
1680;DHT22;838;51.794;12.258;2023-08-06T10:23:06;25.40;1.00
1680;DHT22;838;51.794;12.258;2023-08-06T10:25:46;25.80;1.00
1680;DHT22;838;51.794;12.258;2023-08-06T10:28:19;25.90;1.00
1680;DHT22;838;51.794;12.258;2023-08-06T10:30:45;25.80;1.00
1680;DHT22;838;51.794;12.258;2023-08-06T10:33:12;25.50;1.00
1680;DHT22;838;51.794;12.258;2023-08-06T10:35:41;25.50;1.00
1680;DHT22;838;51.794;12.258;2023-08-06T10:38:11;25.90;1.00
1680;DHT22;838;51.794;12.258;2023-08-06T10:40:42;26.00;1.00
1680;DHT22;838;51.794;12.258;2023-08-06T10:43:37;25.30;1.00
1680;DHT22;838;51.794;12.258;2023-08-06T10:46:26;25.40;1.00
1680;DHT22;838;51.794;12.258;2023-08-06T10:49:17;25.90;1.00
1680;DHT22;838;51.794;12.258;2023-08-06T10:51:44;25.70;1.00
1680;DHT22;838;51.794;12.258;2023-08-06T10:54:27;24.70;1.00
1680;DHT22;838;51.794;12.258;2023-08-06T10:56:53;24.40;1.00
1680;DHT22;838;51.794;12.258;2023-08-06T10:59:18;24.60;1.00
1680;DHT22;838;51.794;12.258;2023-08-06T11:01:45;24.80;1.00
1680;DHT22;838;51.794;12.258;2023-08-06T11:04:11;24.10;1.00
1680;DHT22;838;51.794;12.258;2023-08-06T11:06:45;23.50;1.00
1680;DHT22;838;51.794;12.258;2023-08-06T11:09:18;23.60;1.00
1680;DHT22;838;51.794;12.258;2023-08-06T11:11:44;23.80;1.00
1680;DHT22;838;51.794;12.258;2023-08-06T11:14:15;24.10;1.00
1680;DHT22;838;51.794;12.258;2023-08-06T11:16:41;24.90;1.00
1680;DHT22;838;51.794;12.258;2023-08-06T11:19:08;25.30;1.00
1680;DHT22;838;51.794;12.258;2023-08-06T11:21:34;24.70;1.00
1680;DHT22;838;51.794;12.258;2023-08-06T11:24:03;25.10;1.00
1680;DHT22;838;51.794;12.258;2023-08-06T11:26:29;25.60;1.00
1680;DHT22;838;51.794;12.258;2023-08-06T11:28:55;25.50;1.00
1680;DHT22;838;51.794;12.258;2023-08-06T11:31:21;25.80;1.00
1680;DHT22;838;51.794;12.258;2023-08-06T11:33:49;25.60;1.00
1680;DHT22;838;51.794;12.258;2023-08-06T11:36:15;24.90;1.00
1680;DHT22;838;51.794;12.258;2023-08-06T11:38:41;25.00;1.00
1680;DHT22;838;51.794;12.258;2023-08-06T11:41:09;24.80;1.00
1680;DHT22;838;51.794;12.258;2023-08-06T11:43:37;24.90;1.00
1680;DHT22;838;51.794;12.258;2023-08-06T11:46:03;25.00;1.00
1680;DHT22;838;51.794;12.258;2023-08-06T11:48:29;25.20;1.00
1680;DHT22;838;51.794;12.258;2023-08-06T11:50:55;25.30;1.00
1680;DHT22;838;51.794;12.258;2023-08-06T11:53:27;25.20;1.00
1680;DHT22;838;51.794;12.258;2023-08-06T11:55:54;25.40;1.00
1680;DHT22;838;51.794;12.258;2023-08-06T11:58:20;24.90;1.00
1680;DHT22;838;51.794;12.258;2023-08-06T12:00:46;24.90;1.00
1680;DHT22;838;51.794;12.258;2023-08-06T12:03:12;25.00;1.00
1680;DHT22;838;51.794;12.258;2023-08-06T12:05:37;25.60;1.00
1680;DHT22;838;51.794;12.258;2023-08-06T12:08:04;25.60;1.00
1680;DHT22;838;51.794;12.258;2023-08-06T12:10:33;25.30;1.00
1680;DHT22;838;51.794;12.258;2023-08-06T12:13:04;24.90;1.00
1680;DHT22;838;51.794;12.258;2023-08-06T12:15:33;24.80;1.00
1680;DHT22;838;51.794;12.258;2023-08-06T12:17:59;24.70;1.00
1680;DHT22;838;51.794;12.258;2023-08-06T12:20:24;24.80;1.00
1680;DHT22;838;51.794;12.258;2023-08-06T12:22:51;24.70;1.00
1680;DHT22;838;51.794;12.258;2023-08-06T12:25:17;25.30;1.00
1680;DHT22;838;51.794;12.258;2023-08-06T12:27:43;25.00;1.00
1680;DHT22;838;51.794;12.258;2023-08-06T12:30:11;25.20;1.00
1680;DHT22;838;51.794;12.258;2023-08-06T12:32:37;25.50;1.00
1680;DHT22;838;51.794;12.258;2023-08-06T12:35:04;25.60;1.00
1680;DHT22;838;51.794;12.258;2023-08-06T12:37:30;25.50;1.00
1680;DHT22;838;51.794;12.258;2023-08-06T12:39:56;25.30;1.00
1680;DHT22;838;51.794;12.258;2023-08-06T12:42:25;25.60;1.00
1680;DHT22;838;51.794;12.258;2023-08-06T12:44:51;25.50;1.00
1680;DHT22;838;51.794;12.258;2023-08-06T12:47:17;24.80;1.00
1680;DHT22;838;51.794;12.258;2023-08-06T12:49:49;24.20;1.00
1680;DHT22;838;51.794;12.258;2023-08-06T12:52:15;24.00;1.00
1680;DHT22;838;51.794;12.258;2023-08-06T12:54:43;23.90;1.00
1680;DHT22;838;51.794;12.258;2023-08-06T12:57:11;23.50;1.00
1680;DHT22;838;51.794;12.258;2023-08-06T12:59:37;23.90;1.00
1680;DHT22;838;51.794;12.258;2023-08-06T13:02:05;23.80;1.00
1680;DHT22;838;51.794;12.258;2023-08-06T13:04:40;23.70;1.00
1680;DHT22;838;51.794;12.258;2023-08-06T13:07:08;24.00;1.00
1680;DHT22;838;51.794;12.258;2023-08-06T13:09:34;24.10;1.00
1680;DHT22;838;51.794;12.258;2023-08-06T13:11:59;23.90;1.00
1680;DHT22;838;51.794;12.258;2023-08-06T13:14:25;23.70;1.00
1680;DHT22;838;51.794;12.258;2023-08-06T13:16:59;23.30;1.00
1680;DHT22;838;51.794;12.258;2023-08-06T13:19:25;23.40;1.00
1680;DHT22;838;51.794;12.258;2023-08-06T13:24:22;23.90;1.00
1680;DHT22;838;51.794;12.258;2023-08-06T13:26:48;24.00;1.00
1680;DHT22;838;51.794;12.258;2023-08-06T13:29:14;24.00;1.00
1680;DHT22;838;51.794;12.258;2023-08-06T13:31:40;24.40;1.00
1680;DHT22;838;51.794;12.258;2023-08-06T13:34:06;24.60;1.00
1680;DHT22;838;51.794;12.258;2023-08-06T13:36:31;24.70;1.00
1680;DHT22;838;51.794;12.258;2023-08-06T13:39:00;24.60;1.00
1680;DHT22;838;51.794;12.258;2023-08-06T13:41:31;24.10;1.00
1680;DHT22;838;51.794;12.258;2023-08-06T13:44:00;23.80;1.00
1680;DHT22;838;51.794;12.258;2023-08-06T13:46:30;24.20;1.00
1680;DHT22;838;51.794;12.258;2023-08-06T13:48:56;24.30;1.00
1680;DHT22;838;51.794;12.258;2023-08-06T13:51:22;24.50;1.00
1680;DHT22;838;51.794;12.258;2023-08-06T13:53:48;24.60;1.00
1680;DHT22;838;51.794;12.258;2023-08-06T13:56:23;24.50;1.00
1680;DHT22;838;51.794;12.258;2023-08-06T13:58:49;24.20;1.00
1680;DHT22;838;51.794;12.258;2023-08-06T14:01:17;24.00;1.00
1680;DHT22;838;51.794;12.258;2023-08-06T14:03:46;23.40;1.00
1680;DHT22;838;51.794;12.258;2023-08-06T14:06:12;23.40;1.00
1680;DHT22;838;51.794;12.258;2023-08-06T14:08:38;23.20;1.00
1680;DHT22;838;51.794;12.258;2023-08-06T14:11:05;23.30;1.00
1680;DHT22;838;51.794;12.258;2023-08-06T14:13:31;23.60;1.00
1680;DHT22;838;51.794;12.258;2023-08-06T14:16:00;23.60;1.00
1680;DHT22;838;51.794;12.258;2023-08-06T14:18:26;23.60;1.00
1680;DHT22;838;51.794;12.258;2023-08-06T14:20:58;24.00;1.00
1680;DHT22;838;51.794;12.258;2023-08-06T14:23:26;24.00;1.00
1680;DHT22;838;51.794;12.258;2023-08-06T14:25:55;23.90;1.00
1680;DHT22;838;51.794;12.258;2023-08-06T14:28:24;23.70;1.00
1680;DHT22;838;51.794;12.258;2023-08-06T14:30:53;23.80;1.00
1680;DHT22;838;51.794;12.258;2023-08-06T14:33:30;23.80;1.00
1680;DHT22;838;51.794;12.258;2023-08-06T14:35:59;23.90;1.00
1680;DHT22;838;51.794;12.258;2023-08-06T14:38:25;23.40;1.00
1680;DHT22;838;51.794;12.258;2023-08-06T14:40:51;23.30;2.30
1680;DHT22;838;51.794;12.258;2023-08-06T14:43:23;23.60;2.20
1680;DHT22;838;51.794;12.258;2023-08-06T14:45:49;23.80;1.10
1680;DHT22;838;51.794;12.258;2023-08-06T14:48:15;23.60;1.00
1680;DHT22;838;51.794;12.258;2023-08-06T14:50:41;23.50;1.00
1680;DHT22;838;51.794;12.258;2023-08-06T14:53:07;23.40;1.60
1680;DHT22;838;51.794;12.258;2023-08-06T14:55:33;23.40;2.10
1680;DHT22;838;51.794;12.258;2023-08-06T14:58:01;23.40;4.00
1680;DHT22;838;51.794;12.258;2023-08-06T15:00:26;23.20;4.90
1680;DHT22;838;51.794;12.258;2023-08-06T15:02:52;23.30;6.70
1680;DHT22;838;51.794;12.258;2023-08-06T15:05:27;23.30;5.20
1680;DHT22;838;51.794;12.258;2023-08-06T15:07:53;23.60;4.60
1680;DHT22;838;51.794;12.258;2023-08-06T15:10:22;23.60;4.00
1680;DHT22;838;51.794;12.258;2023-08-06T15:12:48;24.00;6.00
1680;DHT22;838;51.794;12.258;2023-08-06T15:15:20;24.00;4.90
1680;DHT22;838;51.794;12.258;2023-08-06T15:17:58;24.20;5.10
1680;DHT22;838;51.794;12.258;2023-08-06T15:20:24;24.30;2.80
1680;DHT22;838;51.794;12.258;2023-08-06T15:22:50;24.70;3.00
1680;DHT22;838;51.794;12.258;2023-08-06T15:25:16;24.90;1.50
1680;DHT22;838;51.794;12.258;2023-08-06T15:28:02;25.00;1.00
1680;DHT22;838;51.794;12.258;2023-08-06T15:30:28;25.00;1.00
1680;DHT22;838;51.794;12.258;2023-08-06T15:33:06;25.10;1.00
1680;DHT22;838;51.794;12.258;2023-08-06T15:35:33;25.10;1.00
1680;DHT22;838;51.794;12.258;2023-08-06T15:38:02;24.50;1.60
1680;DHT22;838;51.794;12.258;2023-08-06T15:40:30;23.80;6.20
1680;DHT22;838;51.794;12.258;2023-08-06T15:43:04;24.00;6.20
1680;DHT22;838;51.794;12.258;2023-08-06T15:45:36;23.80;5.90
1680;DHT22;838;51.794;12.258;2023-08-06T15:48:11;23.50;9.40
1680;DHT22;838;51.794;12.258;2023-08-06T15:50:38;23.70;6.60
1680;DHT22;838;51.794;12.258;2023-08-06T15:53:04;24.10;6.00
1680;DHT22;838;51.794;12.258;2023-08-06T15:55:39;24.00;6.10
1680;DHT22;838;51.794;12.258;2023-08-06T15:58:11;24.20;3.60
1680;DHT22;838;51.794;12.258;2023-08-06T16:00:46;24.50;2.50
1680;DHT22;838;51.794;12.258;2023-08-06T16:03:12;24.40;3.60
1680;DHT22;838;51.794;12.258;2023-08-06T16:05:38;24.30;3.00
1680;DHT22;838;51.794;12.258;2023-08-06T16:08:10;24.20;3.70
1680;DHT22;838;51.794;12.258;2023-08-06T16:10:36;24.00;3.50
1680;DHT22;838;51.794;12.258;2023-08-06T16:13:10;23.80;2.90
1680;DHT22;838;51.794;12.258;2023-08-06T16:15:38;23.60;4.70
1680;DHT22;838;51.794;12.258;2023-08-06T16:18:07;23.30;4.70
1680;DHT22;838;51.794;12.258;2023-08-06T16:20:42;23.20;4.40
1680;DHT22;838;51.794;12.258;2023-08-06T16:23:17;23.10;7.10
1680;DHT22;838;51.794;12.258;2023-08-06T16:25:45;23.10;6.60
1680;DHT22;838;51.794;12.258;2023-08-06T16:28:13;23.00;4.10
1680;DHT22;838;51.794;12.258;2023-08-06T16:30:53;22.90;4.20
1680;DHT22;838;51.794;12.258;2023-08-06T16:33:30;23.00;4.20
1680;DHT22;838;51.794;12.258;2023-08-06T16:36:07;23.00;4.50